createdAt,value
2017-08-10T00:00:50.592Z,91.13
2017-08-10T00:03:19.776Z,90.70
2017-08-10T00:05:49.093Z,88.60
2017-08-10T00:08:20.293Z,86.30
2017-08-10T00:10:49.676Z,89.20
2017-08-10T00:13:19.126Z,88.80
2017-08-10T00:15:48.494Z,84.60
2017-08-10T00:18:17.781Z,88.37
2017-08-10T00:20:47.199Z,87.50
2017-08-10T00:23:16.697Z,93.73
2017-08-10T00:25:45.834Z,90.87
2017-08-10T00:28:15.205Z,89.70
2017-08-10T00:30:44.610Z,92.07
2017-08-10T00:33:15.899Z,87.40
2017-08-10T00:35:45.716Z,94.87
2017-08-10T00:38:14.881Z,90.90
2017-08-10T00:40:45.889Z,88.37
2017-08-10T00:43:15.585Z,88.80
2017-08-10T00:45:44.983Z,89.20
2017-08-10T00:48:14.894Z,90.90
2017-08-10T00:50:44.951Z,85.13
2017-08-10T00:53:15.069Z,84.03
2017-08-10T00:55:44.233Z,83.67
2017-08-10T00:58:13.653Z,87.53
2017-08-10T01:00:43.171Z,88.93
2017-08-10T01:03:12.560Z,87.37
2017-08-10T01:05:42.066Z,84.87
2017-08-10T01:08:12.198Z,85.13
2017-08-10T01:10:42.530Z,84.83
2017-08-10T01:13:12.007Z,83.17
2017-08-10T01:15:41.524Z,81.57
2017-08-10T01:18:10.928Z,77.93
2017-08-10T01:20:40.358Z,79.40
2017-08-10T01:23:09.711Z,77.20
2017-08-10T01:25:39.762Z,79.17
2017-08-10T01:28:09.002Z,74.57
2017-08-10T01:30:37.954Z,74.87
2017-08-10T01:33:07.264Z,73.00
2017-08-10T01:35:36.763Z,75.30
2017-08-10T01:38:06.256Z,72.67
2017-08-10T01:40:35.944Z,72.33
2017-08-10T01:43:05.368Z,76.67
2017-08-10T01:45:34.840Z,70.57
2017-08-10T01:48:05.953Z,72.60
2017-08-10T01:50:36.037Z,68.77
2017-08-10T01:53:07.095Z,69.47
2017-08-10T01:55:36.090Z,67.17
2017-08-10T01:58:05.362Z,65.67
2017-08-10T02:00:35.496Z,68.50
2017-08-10T02:03:04.712Z,67.53
2017-08-10T02:05:33.801Z,67.60
2017-08-10T02:08:03.054Z,65.70
2017-08-10T02:10:32.163Z,68.60
2017-08-10T02:13:02.263Z,68.30
2017-08-10T02:15:31.642Z,67.67
2017-08-10T02:18:01.895Z,68.23
2017-08-10T02:20:32.115Z,70.03
2017-08-10T02:23:01.518Z,70.93
2017-08-10T02:25:32.863Z,70.07
2017-08-10T02:28:03.310Z,66.17
2017-08-10T02:30:35.868Z,72.73
2017-08-10T02:33:06.260Z,69.37
2017-08-10T02:35:35.740Z,72.17
2017-08-10T02:38:04.919Z,69.97
2017-08-10T02:40:35.434Z,71.57
2017-08-10T02:43:04.993Z,65.47
2017-08-10T02:45:34.173Z,69.40
2017-08-10T02:48:04.647Z,66.73
2017-08-10T02:50:33.984Z,69.43
2017-08-10T02:53:03.396Z,68.40
2017-08-10T02:55:32.879Z,67.40
2017-08-10T02:58:03.357Z,67.27
2017-08-10T03:00:33.605Z,68.37
2017-08-10T03:03:04.205Z,67.97
2017-08-10T03:05:34.519Z,65.67
2017-08-10T03:08:04.816Z,65.20
2017-08-10T03:10:34.478Z,67.60
2017-08-10T03:13:06.262Z,67.93
2017-08-10T03:15:37.000Z,67.70
2017-08-10T03:18:06.570Z,71.30
2017-08-10T03:20:36.158Z,64.77
2017-08-10T03:23:05.574Z,69.53
2017-08-10T03:25:34.995Z,67.13
2017-08-10T03:28:04.374Z,67.10
2017-08-10T03:30:37.233Z,69.13
2017-08-10T03:33:06.512Z,67.63
2017-08-10T03:35:38.173Z,68.23
2017-08-10T03:38:07.529Z,66.00
2017-08-10T03:40:36.931Z,61.70
2017-08-10T03:43:06.221Z,64.67
2017-08-10T03:45:35.696Z,59.47
2017-08-10T03:48:05.389Z,59.60
2017-08-10T03:50:34.731Z,61.77
2017-08-10T03:53:03.938Z,57.77
2017-08-10T03:55:33.524Z,59.53
2017-08-10T03:58:02.923Z,58.90
2017-08-10T04:00:38.933Z,53.67
2017-08-10T04:03:09.605Z,55.23
2017-08-10T04:05:39.152Z,52.43
2017-08-10T04:08:08.395Z,54.10
2017-08-10T04:10:37.614Z,54.07
2017-08-10T04:13:08.200Z,54.60
2017-08-10T04:15:37.485Z,50.87
2017-08-10T04:18:06.819Z,53.17
2017-08-10T04:20:37.269Z,57.67
2017-08-10T04:23:07.103Z,57.63
2017-08-10T04:25:36.424Z,55.97
2017-08-10T04:28:05.784Z,56.13
2017-08-10T04:30:35.220Z,55.33
2017-08-10T04:33:04.483Z,53.63
2017-08-10T04:35:33.909Z,57.37
2017-08-10T04:38:03.239Z,53.63
2017-08-10T04:40:32.598Z,47.10
2017-08-10T04:43:02.091Z,46.87
2017-08-10T04:45:31.481Z,45.27
2017-08-10T04:48:01.039Z,42.27
2017-08-10T04:50:30.572Z,43.93
2017-08-10T04:52:59.794Z,41.60
2017-08-10T04:55:30.092Z,42.47
2017-08-10T04:57:59.239Z,42.00
2017-08-10T05:00:28.742Z,40.60
2017-08-10T05:02:58.128Z,40.47
2017-08-10T05:05:27.675Z,41.20
2017-08-10T05:08:00.705Z,40.10
2017-08-10T05:10:30.277Z,41.30
2017-08-10T05:12:59.558Z,39.83
2017-08-10T05:15:30.189Z,39.13
2017-08-10T05:17:59.995Z,37.47
2017-08-10T05:20:29.404Z,39.27
2017-08-10T05:22:58.741Z,37.20
2017-08-10T05:25:27.931Z,38.40
2017-08-10T05:27:57.169Z,36.53
2017-08-10T05:30:26.760Z,38.03
2017-08-10T05:32:56.915Z,39.50
2017-08-10T05:35:26.282Z,40.47
2017-08-10T05:37:55.738Z,37.53
2017-08-10T05:40:25.182Z,36.07
2017-08-10T05:42:54.401Z,34.40
2017-08-10T05:45:24.727Z,36.93
2017-08-10T05:47:53.989Z,34.83
2017-08-10T05:50:23.263Z,34.93
2017-08-10T05:52:52.556Z,36.33
2017-08-10T05:55:21.747Z,35.20
2017-08-10T05:57:51.125Z,35.17
2017-08-10T06:00:21.222Z,35.63
2017-08-10T06:02:50.822Z,33.70
2017-08-10T06:05:20.144Z,32.70
2017-08-10T06:07:49.696Z,34.80
2017-08-10T06:10:19.140Z,34.90
2017-08-10T06:12:48.471Z,36.53
2017-08-10T06:15:18.704Z,33.67
2017-08-10T06:17:50.563Z,33.90
2017-08-10T06:20:19.842Z,34.03
2017-08-10T06:22:49.098Z,34.13
2017-08-10T06:25:18.373Z,35.00
2017-08-10T06:27:47.756Z,33.30
2017-08-10T06:30:17.130Z,33.40
2017-08-10T06:32:46.407Z,33.97
2017-08-10T06:35:15.976Z,31.93
2017-08-10T06:37:45.462Z,35.80
2017-08-10T06:40:14.784Z,37.40
2017-08-10T06:42:44.114Z,32.07
2017-08-10T06:45:13.372Z,34.63
2017-08-10T06:47:43.503Z,33.57
2017-08-10T06:50:13.340Z,32.87
2017-08-10T06:52:42.860Z,34.10
2017-08-10T06:55:12.105Z,35.33
2017-08-10T06:57:42.387Z,34.90
2017-08-10T07:00:11.664Z,33.37
2017-08-10T07:02:40.910Z,33.13
2017-08-10T07:05:10.255Z,37.13
2017-08-10T07:07:40.585Z,33.93
2017-08-10T07:10:10.343Z,33.80
2017-08-10T07:12:39.809Z,34.27
2017-08-10T07:15:09.064Z,34.47
2017-08-10T07:17:38.656Z,33.97
2017-08-10T07:20:08.657Z,34.27
2017-08-10T07:22:37.696Z,39.43
2017-08-10T07:25:07.120Z,34.27
2017-08-10T07:27:37.331Z,34.50
2017-08-10T07:30:06.638Z,34.50
2017-08-10T07:32:35.933Z,34.03
2017-08-10T07:35:05.153Z,33.40
2017-08-10T07:37:35.199Z,34.60
2017-08-10T07:40:04.369Z,35.00
2017-08-10T07:42:33.690Z,33.73
2017-08-10T07:45:03.027Z,34.40
2017-08-10T07:47:33.217Z,34.70
2017-08-10T07:50:02.557Z,34.23
2017-08-10T07:52:32.675Z,34.27
2017-08-10T07:55:02.067Z,33.97
2017-08-10T07:57:31.385Z,35.10
2017-08-10T08:00:01.648Z,37.50
2017-08-10T08:02:30.823Z,34.67
2017-08-10T08:05:00.291Z,36.67
2017-08-10T08:07:29.923Z,38.10
2017-08-10T08:09:59.212Z,37.97
2017-08-10T08:12:28.770Z,35.93
2017-08-10T08:14:58.181Z,34.73
2017-08-10T08:17:27.518Z,39.97
2017-08-10T08:19:57.165Z,38.60
2017-08-10T08:22:28.101Z,39.43
2017-08-10T08:24:57.309Z,35.23
2017-08-10T08:27:26.681Z,33.70
2017-08-10T08:29:57.418Z,38.50
2017-08-10T08:32:26.824Z,35.77
2017-08-10T08:34:57.026Z,35.23
2017-08-10T08:37:26.374Z,40.40
2017-08-10T08:39:55.550Z,36.00
2017-08-10T08:42:24.854Z,40.90
2017-08-10T08:44:54.384Z,39.00
2017-08-10T08:47:23.464Z,40.40
2017-08-10T08:49:52.869Z,38.50
2017-08-10T08:52:22.190Z,39.07
2017-08-10T08:54:51.432Z,38.40
2017-08-10T08:57:21.707Z,42.40
2017-08-10T08:59:50.847Z,37.83
2017-08-10T09:02:20.229Z,39.03
2017-08-10T09:04:49.576Z,40.00
2017-08-10T09:07:19.882Z,41.10
2017-08-10T09:09:49.128Z,41.47
2017-08-10T09:12:18.378Z,39.53
2017-08-10T09:14:47.613Z,39.67
2017-08-10T09:17:17.033Z,39.70
2017-08-10T09:19:46.214Z,39.57
2017-08-10T09:22:15.635Z,39.53
2017-08-10T09:24:45.452Z,40.23
2017-08-10T09:27:14.844Z,43.33
2017-08-10T09:29:44.043Z,41.43
2017-08-10T09:32:13.265Z,39.73
2017-08-10T09:34:42.756Z,43.93
2017-08-10T09:37:11.909Z,41.97
2017-08-10T09:39:41.282Z,43.20
2017-08-10T09:42:10.715Z,42.00
2017-08-10T09:44:40.325Z,44.60
2017-08-10T09:47:09.865Z,42.60
2017-08-10T09:49:39.014Z,43.33
2017-08-10T09:52:08.373Z,40.67
2017-08-10T09:54:38.092Z,43.17
2017-08-10T09:57:07.250Z,45.20
2017-08-10T09:59:36.834Z,44.40
2017-08-10T10:02:06.397Z,44.90
2017-08-10T10:04:35.891Z,41.27
2017-08-10T10:07:05.211Z,42.73
2017-08-10T10:09:34.539Z,42.93
2017-08-10T10:12:04.365Z,44.40
2017-08-10T10:14:33.765Z,45.17
2017-08-10T10:17:03.215Z,44.00
2017-08-10T10:19:32.293Z,44.20
2017-08-10T10:22:01.578Z,44.10
2017-08-10T10:24:31.720Z,45.40
2017-08-10T10:27:02.132Z,43.00
2017-08-10T10:29:31.558Z,42.37
2017-08-10T10:32:01.728Z,42.40
2017-08-10T10:34:31.576Z,44.80
2017-08-10T10:37:02.492Z,44.80
2017-08-10T10:39:32.729Z,43.90
2017-08-10T10:42:02.047Z,45.43
2017-08-10T10:44:31.345Z,43.47
2017-08-10T10:47:00.533Z,42.17
2017-08-10T10:49:29.491Z,40.67
2017-08-10T10:51:59.622Z,42.90
2017-08-10T10:54:29.981Z,47.20
2017-08-10T10:56:59.544Z,42.83
2017-08-10T10:59:28.756Z,44.20
2017-08-10T11:01:59.033Z,41.63
2017-08-10T11:04:28.755Z,48.50
2017-08-10T11:06:58.499Z,43.40
2017-08-10T11:09:28.905Z,43.47
2017-08-10T11:11:58.369Z,46.80
2017-08-10T11:14:27.662Z,40.70
2017-08-10T11:16:56.818Z,46.43
2017-08-10T11:19:26.190Z,41.97
2017-08-10T11:21:55.672Z,40.10
2017-08-10T11:24:25.173Z,43.30
2017-08-10T11:26:54.354Z,47.10
2017-08-10T11:29:24.354Z,45.77
2017-08-10T11:31:54.467Z,43.53
2017-08-10T11:34:23.954Z,41.00
2017-08-10T11:36:53.306Z,42.43
2017-08-10T11:39:22.825Z,44.83
2017-08-10T11:41:52.044Z,43.50
2017-08-10T11:44:21.715Z,42.50
2017-08-10T11:46:51.063Z,43.07
2017-08-10T11:49:20.289Z,40.83
2017-08-10T11:51:50.464Z,42.87
2017-08-10T11:54:19.909Z,42.73
2017-08-10T11:56:49.244Z,42.60
2017-08-10T11:59:18.569Z,41.30
2017-08-10T12:01:47.972Z,42.27
2017-08-10T12:04:17.198Z,40.00
2017-08-10T12:06:46.735Z,39.37
2017-08-10T12:09:16.375Z,39.10
2017-08-10T12:11:45.691Z,42.53
2017-08-10T12:14:15.171Z,43.83
2017-08-10T12:16:44.583Z,45.00
2017-08-10T12:19:14.100Z,42.97
2017-08-10T12:21:43.174Z,44.73
2017-08-10T12:24:12.726Z,45.17
2017-08-10T12:26:41.980Z,42.87
2017-08-10T12:29:12.281Z,42.50
2017-08-10T12:31:42.095Z,38.43
2017-08-10T12:34:12.187Z,42.80
2017-08-10T12:36:41.723Z,41.30
2017-08-10T12:39:11.088Z,38.30
2017-08-10T12:41:40.386Z,41.37
2017-08-10T12:44:09.760Z,39.47
2017-08-10T12:46:39.084Z,39.57
2017-08-10T12:49:08.663Z,40.73
2017-08-10T12:51:38.005Z,41.97
2017-08-10T12:54:07.465Z,42.03
2017-08-10T12:56:36.829Z,42.90
2017-08-10T12:59:06.359Z,41.57
2017-08-10T13:01:35.583Z,40.60
2017-08-10T13:04:04.752Z,38.67
2017-08-10T13:06:33.831Z,44.00
2017-08-10T13:09:03.012Z,40.80
2017-08-10T13:11:32.410Z,42.10
2017-08-10T13:14:01.740Z,40.43
2017-08-10T13:16:31.838Z,39.57
2017-08-10T13:19:01.447Z,41.13
2017-08-10T13:21:30.453Z,38.67
2017-08-10T13:23:59.768Z,40.47
2017-08-10T13:26:28.972Z,40.47
2017-08-10T13:28:58.348Z,42.13
2017-08-10T13:31:27.729Z,38.27
2017-08-10T13:33:58.441Z,44.50
2017-08-10T13:36:27.842Z,36.67
2017-08-10T13:38:57.192Z,36.67
2017-08-10T13:41:26.469Z,41.57
2017-08-10T13:43:55.896Z,37.70
2017-08-10T13:46:25.044Z,40.23
2017-08-10T13:48:54.405Z,39.93
2017-08-10T13:51:23.555Z,36.63
2017-08-10T13:53:53.061Z,39.67
2017-08-10T13:56:22.383Z,38.50
2017-08-10T13:58:51.657Z,35.30
2017-08-10T14:01:20.743Z,39.80
2017-08-10T14:03:50.236Z,35.23
2017-08-10T14:06:21.480Z,39.13
2017-08-10T14:08:50.901Z,41.13
2017-08-10T14:11:20.158Z,36.90
2017-08-10T14:13:49.189Z,39.43
2017-08-10T14:16:18.612Z,36.37
2017-08-10T14:18:47.671Z,44.73
2017-08-10T14:21:16.972Z,41.80
2017-08-10T14:23:46.649Z,37.87
2017-08-10T14:26:16.212Z,38.30
2017-08-10T14:28:45.669Z,36.33
2017-08-10T14:31:15.925Z,36.40
2017-08-10T14:33:45.166Z,34.70
2017-08-10T14:36:16.346Z,37.90
2017-08-10T14:38:46.464Z,36.57
2017-08-10T14:41:15.389Z,36.07
2017-08-10T14:43:44.937Z,39.30
2017-08-10T14:46:14.056Z,34.60
2017-08-10T14:48:45.871Z,37.87
2017-08-10T14:51:15.097Z,41.00
2017-08-10T14:53:44.233Z,38.70
2017-08-10T14:56:13.598Z,37.00
2017-08-10T14:58:42.621Z,37.83
2017-08-10T15:01:11.806Z,36.70
2017-08-10T15:03:42.228Z,35.43
2017-08-10T15:06:11.626Z,37.63
2017-08-10T15:08:41.683Z,32.93
2017-08-10T15:11:10.866Z,34.23
2017-08-10T15:13:40.225Z,34.10
2017-08-10T15:16:09.332Z,40.83
2017-08-10T15:18:38.770Z,35.90
2017-08-10T15:21:07.968Z,34.67
2017-08-10T15:23:37.112Z,35.67
2017-08-10T15:26:06.346Z,33.73
2017-08-10T15:28:36.585Z,34.53
2017-08-10T15:31:05.735Z,34.60
2017-08-10T15:33:35.196Z,37.83
2017-08-10T15:36:04.342Z,34.57
2017-08-10T15:38:34.059Z,37.10
2017-08-10T15:41:03.641Z,35.43
2017-08-10T15:43:32.926Z,34.97
2017-08-10T15:46:02.269Z,39.33
2017-08-10T15:48:31.134Z,36.30
2017-08-10T15:50:59.861Z,40.20
2017-08-10T15:53:29.237Z,39.77
2017-08-10T15:55:58.641Z,34.67
2017-08-10T15:58:27.861Z,34.70
2017-08-10T16:00:57.783Z,36.30
2017-08-10T16:03:28.183Z,34.57
2017-08-10T16:05:58.118Z,30.83
2017-08-10T16:08:28.416Z,32.83
2017-08-10T16:10:57.790Z,36.20
2017-08-10T16:13:27.376Z,35.57
2017-08-10T16:15:58.002Z,34.50
2017-08-10T16:18:27.271Z,30.73
2017-08-10T16:20:56.533Z,30.30
2017-08-10T16:23:25.674Z,32.73
2017-08-10T16:25:54.752Z,32.50
2017-08-10T16:28:24.472Z,33.47
2017-08-10T16:30:53.553Z,36.23
2017-08-10T16:33:22.886Z,31.20
2017-08-10T16:35:52.255Z,33.10
2017-08-10T16:38:21.348Z,34.83
2017-08-10T16:40:52.342Z,33.37
2017-08-10T16:43:21.876Z,33.20
2017-08-10T16:45:51.283Z,34.77
2017-08-10T16:48:20.655Z,31.17
2017-08-10T16:50:49.972Z,36.33
2017-08-10T16:53:19.259Z,30.97
2017-08-10T16:55:48.503Z,32.50
2017-08-10T16:58:17.907Z,33.70
2017-08-10T17:00:46.967Z,32.30
2017-08-10T17:03:16.204Z,38.67
2017-08-10T17:05:45.507Z,33.70
2017-08-10T17:08:14.685Z,36.97
2017-08-10T17:10:43.972Z,31.63
2017-08-10T17:13:13.047Z,35.80
2017-08-10T17:15:42.409Z,35.67
2017-08-10T17:18:12.062Z,30.37
2017-08-10T17:20:41.334Z,36.20
2017-08-10T17:23:10.597Z,34.07
2017-08-10T17:25:40.056Z,35.60
2017-08-10T17:28:09.110Z,37.77
2017-08-10T17:30:38.128Z,34.53
2017-08-10T17:33:08.304Z,40.83
2017-08-10T17:35:37.751Z,41.00
2017-08-10T17:38:06.858Z,36.20
2017-08-10T17:40:36.396Z,37.00
2017-08-10T17:43:06.351Z,33.30
2017-08-10T17:45:35.760Z,38.10
2017-08-10T17:48:05.156Z,35.60
2017-08-10T17:50:34.280Z,39.20
2017-08-10T17:53:03.600Z,39.60
2017-08-10T17:55:33.565Z,40.03
2017-08-10T17:58:02.759Z,37.13
2017-08-10T18:00:31.953Z,36.30
2017-08-10T18:03:01.428Z,39.23
2017-08-10T18:05:30.961Z,36.73
2017-08-10T18:08:00.888Z,37.77
2017-08-10T18:10:30.397Z,35.60
2017-08-10T18:12:59.482Z,40.50
2017-08-10T18:15:28.767Z,38.70
2017-08-10T18:17:58.203Z,38.97
2017-08-10T18:20:27.225Z,37.90
2017-08-10T18:22:56.638Z,37.70
2017-08-10T18:25:35.056Z,37.90
2017-08-10T18:28:05.559Z,38.83
2017-08-10T18:30:37.896Z,38.00
2017-08-10T18:33:07.536Z,47.90
2017-08-10T18:35:37.134Z,49.77
2017-08-10T18:38:07.384Z,51.63
2017-08-10T18:40:36.824Z,48.20
2017-08-10T18:43:07.326Z,46.20
2017-08-10T18:45:36.708Z,44.53
2017-08-10T18:48:06.000Z,43.47
2017-08-10T18:50:35.638Z,39.80
2017-08-10T18:53:05.171Z,46.97
2017-08-10T18:55:34.640Z,43.30
2017-08-10T18:58:04.452Z,44.23
2017-08-10T19:00:33.838Z,49.57
2017-08-10T19:03:03.992Z,42.53
2017-08-10T19:05:33.393Z,47.00
2017-08-10T19:08:02.688Z,45.27
2017-08-10T19:10:31.924Z,43.17
2017-08-10T19:13:01.071Z,42.63
2017-08-10T19:15:30.532Z,46.17
2017-08-10T19:17:59.911Z,44.23
2017-08-10T19:20:29.193Z,43.87
2017-08-10T19:22:59.439Z,41.67
2017-08-10T19:25:28.756Z,40.93
2017-08-10T19:27:58.028Z,45.13
2017-08-10T19:30:27.322Z,40.80
2017-08-10T19:32:56.444Z,46.80
2017-08-10T19:35:25.553Z,47.50
2017-08-10T19:37:54.693Z,49.60
2017-08-10T19:40:24.121Z,48.67
2017-08-10T19:42:53.399Z,45.13
2017-08-10T19:45:23.305Z,49.63
2017-08-10T19:47:52.643Z,46.30
2017-08-10T19:50:22.085Z,44.57
2017-08-10T19:52:51.221Z,46.43
2017-08-10T19:55:20.574Z,45.40
2017-08-10T19:57:49.831Z,51.47
2017-08-10T20:00:19.146Z,45.93
2017-08-10T20:02:48.547Z,45.33
2017-08-10T20:05:17.888Z,47.23
2017-08-10T20:07:46.975Z,46.67
2017-08-10T20:10:16.291Z,51.40
2017-08-10T20:12:45.303Z,50.57
2017-08-10T20:15:14.605Z,51.00
2017-08-10T20:17:44.003Z,50.80
2017-08-10T20:20:14.232Z,48.33
2017-08-10T20:22:45.211Z,50.17
2017-08-10T20:25:14.707Z,48.50
2017-08-10T20:27:43.836Z,51.00
2017-08-10T20:30:12.856Z,47.60
2017-08-10T20:32:42.238Z,48.47
2017-08-10T20:35:11.383Z,52.33
2017-08-10T20:37:40.782Z,53.73
2017-08-10T20:40:10.356Z,55.77
2017-08-10T20:42:39.933Z,53.50
2017-08-10T20:45:09.083Z,54.33
2017-08-10T20:47:39.043Z,53.10
2017-08-10T20:50:08.248Z,54.90
2017-08-10T20:52:37.396Z,57.33
2017-08-10T20:55:06.884Z,56.33
2017-08-10T20:57:37.019Z,55.67
2017-08-10T21:00:07.243Z,57.90
2017-08-10T21:02:37.045Z,58.50
2017-08-10T21:05:07.626Z,54.63
2017-08-10T21:07:37.326Z,56.07
2017-08-10T21:10:06.565Z,56.50
2017-08-10T21:12:36.039Z,54.07
2017-08-10T21:15:05.686Z,58.63
2017-08-10T21:17:35.194Z,60.00
2017-08-10T21:20:04.707Z,59.53
2017-08-10T21:22:34.241Z,59.60
2017-08-10T21:25:03.408Z,57.33
2017-08-10T21:27:37.198Z,58.80
2017-08-10T21:30:06.326Z,60.93
2017-08-10T21:32:35.601Z,61.87
2017-08-10T21:35:05.934Z,59.43
2017-08-10T21:37:37.425Z,60.90
2017-08-10T21:40:09.162Z,62.67
2017-08-10T21:42:38.321Z,64.10
2017-08-10T21:45:07.520Z,66.87
2017-08-10T21:47:37.522Z,63.50
2017-08-10T21:50:07.608Z,68.17
2017-08-10T21:52:36.840Z,65.40
2017-08-10T21:55:06.178Z,67.70
2017-08-10T21:57:35.537Z,66.53
2017-08-10T22:00:04.891Z,69.30
2017-08-10T22:02:34.310Z,68.17
2017-08-10T22:05:03.531Z,68.57
2017-08-10T22:07:32.620Z,69.87
2017-08-10T22:10:01.828Z,65.60
2017-08-10T22:12:31.123Z,66.67
2017-08-10T22:15:00.391Z,69.27
2017-08-10T22:17:29.727Z,69.60
2017-08-10T22:19:58.834Z,67.57
2017-08-10T22:22:27.917Z,67.67
2017-08-10T22:24:56.868Z,68.47
2017-08-10T22:27:26.117Z,67.43
2017-08-10T22:29:55.363Z,68.37
2017-08-10T22:32:24.853Z,67.87
2017-08-10T22:34:54.084Z,70.17
2017-08-10T22:37:23.466Z,76.20
2017-08-10T22:39:52.845Z,69.37
2017-08-10T22:42:22.156Z,67.70
2017-08-10T22:44:51.460Z,68.13
2017-08-10T22:47:21.032Z,73.80
2017-08-10T22:49:50.298Z,72.77
2017-08-10T22:52:20.981Z,73.30
2017-08-10T22:54:51.236Z,69.33
2017-08-10T22:57:20.547Z,70.67
2017-08-10T22:59:49.898Z,71.47
2017-08-10T23:02:19.130Z,70.33
2017-08-10T23:04:48.796Z,71.17
2017-08-10T23:07:18.143Z,71.23
2017-08-10T23:09:48.023Z,71.40
2017-08-10T23:12:17.300Z,75.63
2017-08-10T23:14:47.114Z,73.23
2017-08-10T23:17:16.501Z,70.40
2017-08-10T23:19:45.785Z,71.50
2017-08-10T23:22:14.995Z,70.77
2017-08-10T23:24:44.556Z,66.83
2017-08-10T23:27:19.230Z,72.43
2017-08-10T23:29:48.378Z,74.40
2017-08-10T23:32:17.475Z,73.50
2017-08-10T23:34:49.174Z,70.60
2017-08-10T23:37:18.977Z,69.90
2017-08-10T23:39:48.839Z,68.97
2017-08-10T23:42:18.167Z,72.30
2017-08-10T23:44:47.633Z,72.83
2017-08-10T23:47:17.541Z,75.27
2017-08-10T23:49:46.664Z,73.73
2017-08-10T23:52:16.136Z,72.10
2017-08-10T23:54:46.647Z,77.80
2017-08-10T23:57:16.305Z,74.27
2017-08-10T23:59:46.096Z,74.13
